sensor_id;sensor_type;location;lat;lon;timestamp;pressure;altitude;pressure_sealevel;temperature;humidity
64460;BME280;50828;53.756;21.140;2023-09-19T00:04:47;99169.41;;;19.42;61.55
64460;BME280;50828;53.756;21.140;2023-09-19T00:09:54;99165.98;;;19.39;61.61
64460;BME280;50828;53.756;21.140;2023-09-19T00:15:02;99162.34;;;19.36;61.74
64460;BME280;50828;53.756;21.140;2023-09-19T00:20:13;99162.47;;;19.33;62.07
64460;BME280;50828;53.756;21.140;2023-09-19T00:25:23;99151.67;;;19.28;62.18
64460;BME280;50828;53.756;21.140;2023-09-19T00:30:32;99150.72;;;19.24;62.30
64460;BME280;50828;53.756;21.140;2023-09-19T00:35:39;99146.64;;;19.20;62.63
64460;BME280;50828;53.756;21.140;2023-09-19T00:40:54;99146.71;;;19.17;62.65
64460;BME280;50828;53.756;21.140;2023-09-19T00:46:05;99148.09;;;19.14;62.74
64460;BME280;50828;53.756;21.140;2023-09-19T00:51:14;99141.59;;;19.11;63.02
64460;BME280;50828;53.756;21.140;2023-09-19T00:56:25;99142.54;;;19.08;63.17
64460;BME280;50828;53.756;21.140;2023-09-19T01:01:33;99142.72;;;19.04;63.29
64460;BME280;50828;53.756;21.140;2023-09-19T01:06:41;99137.27;;;19.02;63.43
64460;BME280;50828;53.756;21.140;2023-09-19T01:11:53;99132.02;;;18.99;63.40
64460;BME280;50828;53.756;21.140;2023-09-19T01:17:09;99121.59;;;18.96;63.72
64460;BME280;50828;53.756;21.140;2023-09-19T01:22:26;99115.77;;;18.93;64.00
64460;BME280;50828;53.756;21.140;2023-09-19T01:28:06;99114.33;;;18.91;64.14
64460;BME280;50828;53.756;21.140;2023-09-19T01:33:17;99108.51;;;18.88;64.16
64460;BME280;50828;53.756;21.140;2023-09-19T01:38:25;99103.15;;;18.86;64.19
64460;BME280;50828;53.756;21.140;2023-09-19T01:43:36;99102.61;;;18.84;64.28
64460;BME280;50828;53.756;21.140;2023-09-19T01:48:49;99098.14;;;18.82;64.33
64460;BME280;50828;53.756;21.140;2023-09-19T01:54:04;99087.09;;;18.80;64.47
64460;BME280;50828;53.756;21.140;2023-09-19T01:59:21;99086.86;;;18.79;64.62
64460;BME280;50828;53.756;21.140;2023-09-19T02:04:30;99088.55;;;18.76;64.63
64460;BME280;50828;53.756;21.140;2023-09-19T02:09:39;99082.48;;;18.74;64.79
64460;BME280;50828;53.756;21.140;2023-09-19T02:14:48;99077.45;;;18.70;64.89
64460;BME280;50828;53.756;21.140;2023-09-19T02:19:56;99075.64;;;18.69;65.01
64460;BME280;50828;53.756;21.140;2023-09-19T02:25:06;99069.61;;;18.66;65.04
64460;BME280;50828;53.756;21.140;2023-09-19T02:30:15;99062.66;;;18.64;65.27
64460;BME280;50828;53.756;21.140;2023-09-19T02:35:27;99053.75;;;18.60;65.27
64460;BME280;50828;53.756;21.140;2023-09-19T02:40:40;99052.23;;;18.60;65.39
64460;BME280;50828;53.756;21.140;2023-09-19T02:45:49;99042.84;;;18.57;65.48
64460;BME280;50828;53.756;21.140;2023-09-19T02:51:00;99028.80;;;18.54;65.55
64460;BME280;50828;53.756;21.140;2023-09-19T02:56:07;99018.96;;;18.52;65.52
64460;BME280;50828;53.756;21.140;2023-09-19T03:01:15;99015.61;;;18.50;65.72
64460;BME280;50828;53.756;21.140;2023-09-19T03:06:25;99008.42;;;18.47;65.90
64460;BME280;50828;53.756;21.140;2023-09-19T03:11:33;99003.50;;;18.44;65.94
64460;BME280;50828;53.756;21.140;2023-09-19T03:16:41;98995.75;;;18.41;65.99
64460;BME280;50828;53.756;21.140;2023-09-19T03:21:51;98996.31;;;18.37;66.12
64460;BME280;50828;53.756;21.140;2023-09-19T03:27:00;99005.23;;;18.33;66.15
64460;BME280;50828;53.756;21.140;2023-09-19T03:32:08;98995.24;;;18.27;66.27
64460;BME280;50828;53.756;21.140;2023-09-19T03:37:17;98997.41;;;18.23;66.40
64460;BME280;50828;53.756;21.140;2023-09-19T03:42:26;99000.19;;;18.18;66.41
64460;BME280;50828;53.756;21.140;2023-09-19T03:47:34;98998.20;;;18.12;66.43
64460;BME280;50828;53.756;21.140;2023-09-19T03:52:42;98988.02;;;18.06;66.58
64460;BME280;50828;53.756;21.140;2023-09-19T03:57:51;98988.67;;;18.03;66.65
64460;BME280;50828;53.756;21.140;2023-09-19T04:02:59;98988.97;;;17.98;66.97
64460;BME280;50828;53.756;21.140;2023-09-19T04:08:13;98981.23;;;17.90;67.11
64460;BME280;50828;53.756;21.140;2023-09-19T04:13:20;98980.81;;;17.87;67.24
64460;BME280;50828;53.756;21.140;2023-09-19T04:18:28;98973.70;;;17.80;67.32
64460;BME280;50828;53.756;21.140;2023-09-19T04:23:40;98978.73;;;17.78;67.33
64460;BME280;50828;53.756;21.140;2023-09-19T04:28:49;98975.58;;;17.73;67.41
64460;BME280;50828;53.756;21.140;2023-09-19T04:33:57;98963.07;;;17.70;67.49
64460;BME280;50828;53.756;21.140;2023-09-19T04:39:06;98952.39;;;17.68;67.62
64460;BME280;50828;53.756;21.140;2023-09-19T04:44:14;98948.84;;;17.66;67.77
64460;BME280;50828;53.756;21.140;2023-09-19T04:49:23;98945.26;;;17.62;67.98
64460;BME280;50828;53.756;21.140;2023-09-19T04:54:30;98934.95;;;17.61;68.27
64460;BME280;50828;53.756;21.140;2023-09-19T04:59:39;98929.90;;;17.60;68.31
64460;BME280;50828;53.756;21.140;2023-09-19T05:04:47;98918.45;;;17.59;68.69
64460;BME280;50828;53.756;21.140;2023-09-19T05:09:55;98911.38;;;17.58;68.74
64460;BME280;50828;53.756;21.140;2023-09-19T05:15:03;98921.69;;;17.58;68.64
64460;BME280;50828;53.756;21.140;2023-09-19T05:20:12;98915.78;;;17.57;68.73
64460;BME280;50828;53.756;21.140;2023-09-19T05:25:30;98916.75;;;17.56;68.95
64460;BME280;50828;53.756;21.140;2023-09-19T05:30:38;98911.41;;;17.56;68.96
64460;BME280;50828;53.756;21.140;2023-09-19T05:35:47;98913.63;;;17.61;68.80
64460;BME280;50828;53.756;21.140;2023-09-19T05:40:55;98916.73;;;17.68;68.94
64460;BME280;50828;53.756;21.140;2023-09-19T05:46:03;98910.47;;;17.76;68.92
64460;BME280;50828;53.756;21.140;2023-09-19T05:51:10;98907.84;;;17.84;68.66
64460;BME280;50828;53.756;21.140;2023-09-19T05:56:18;98911.34;;;17.91;68.74
64460;BME280;50828;53.756;21.140;2023-09-19T06:01:26;98918.41;;;17.96;68.64
64460;BME280;50828;53.756;21.140;2023-09-19T06:06:34;98925.72;;;18.00;68.46
64460;BME280;50828;53.756;21.140;2023-09-19T06:11:45;98935.98;;;18.05;68.41
64460;BME280;50828;53.756;21.140;2023-09-19T06:16:52;98938.09;;;18.09;68.34
64460;BME280;50828;53.756;21.140;2023-09-19T06:22:00;98946.98;;;18.11;68.29
64460;BME280;50828;53.756;21.140;2023-09-19T06:27:08;98955.13;;;18.14;68.24
64460;BME280;50828;53.756;21.140;2023-09-19T06:32:16;98957.98;;;18.17;68.18
64460;BME280;50828;53.756;21.140;2023-09-19T06:37:24;98961.73;;;18.23;68.35
64460;BME280;50828;53.756;21.140;2023-09-19T06:42:37;98958.04;;;18.28;68.24
64460;BME280;50828;53.756;21.140;2023-09-19T06:47:45;98967.23;;;18.35;68.05
64460;BME280;50828;53.756;21.140;2023-09-19T06:52:56;98973.13;;;18.41;68.04
64460;BME280;50828;53.756;21.140;2023-09-19T06:58:05;98964.27;;;18.48;67.98
64460;BME280;50828;53.756;21.140;2023-09-19T07:03:15;98960.33;;;18.55;67.92
64460;BME280;50828;53.756;21.140;2023-09-19T07:08:26;98956.10;;;18.60;67.91
64460;BME280;50828;53.756;21.140;2023-09-19T07:13:34;98948.55;;;18.64;67.73
64460;BME280;50828;53.756;21.140;2023-09-19T07:18:42;98951.93;;;18.70;67.73
64460;BME280;50828;53.756;21.140;2023-09-19T07:23:51;98949.77;;;18.76;67.70
64460;BME280;50828;53.756;21.140;2023-09-19T07:28:59;98947.42;;;18.82;67.65
64460;BME280;50828;53.756;21.140;2023-09-19T07:34:08;98949.92;;;18.90;67.53
64460;BME280;50828;53.756;21.140;2023-09-19T07:39:16;98943.10;;;19.00;67.52
64460;BME280;50828;53.756;21.140;2023-09-19T07:44:28;98939.53;;;19.10;67.44
64460;BME280;50828;53.756;21.140;2023-09-19T07:49:35;98940.65;;;19.20;67.39
64460;BME280;50828;53.756;21.140;2023-09-19T07:54:43;98936.45;;;19.33;67.42
64460;BME280;50828;53.756;21.140;2023-09-19T07:59:50;98944.45;;;19.49;67.24
64460;BME280;50828;53.756;21.140;2023-09-19T08:04:58;98951.80;;;19.63;67.01
64460;BME280;50828;53.756;21.140;2023-09-19T08:10:08;98958.59;;;19.72;66.73
64460;BME280;50828;53.756;21.140;2023-09-19T08:15:19;98975.63;;;19.78;66.50
64460;BME280;50828;53.756;21.140;2023-09-19T08:20:27;98984.20;;;19.80;66.29
64460;BME280;50828;53.756;21.140;2023-09-19T08:25:36;98993.98;;;19.82;66.21
64460;BME280;50828;53.756;21.140;2023-09-19T08:30:58;98994.62;;;19.81;66.48
64460;BME280;50828;53.756;21.140;2023-09-19T08:36:16;98990.85;;;19.73;66.74
64460;BME280;50828;53.756;21.140;2023-09-19T08:41:33;98986.17;;;19.62;66.98
64460;BME280;50828;53.756;21.140;2023-09-19T08:46:42;98990.03;;;19.50;67.31
64460;BME280;50828;53.756;21.140;2023-09-19T08:51:57;98992.79;;;19.34;67.67
64460;BME280;50828;53.756;21.140;2023-09-19T08:57:10;98992.23;;;19.17;68.04
64460;BME280;50828;53.756;21.140;2023-09-19T09:02:22;98994.55;;;19.02;68.34
64460;BME280;50828;53.756;21.140;2023-09-19T09:07:31;98999.72;;;18.86;68.67
64460;BME280;50828;53.756;21.140;2023-09-19T09:12:41;99003.23;;;18.73;68.98
64460;BME280;50828;53.756;21.140;2023-09-19T09:17:51;99015.79;;;18.62;69.24
64460;BME280;50828;53.756;21.140;2023-09-19T09:23:00;99027.09;;;18.52;69.62
64460;BME280;50828;53.756;21.140;2023-09-19T09:28:10;99029.66;;;18.43;70.04
64460;BME280;50828;53.756;21.140;2023-09-19T09:33:19;99032.86;;;18.35;70.42
64460;BME280;50828;53.756;21.140;2023-09-19T09:38:28;99037.72;;;18.29;70.85
64460;BME280;50828;53.756;21.140;2023-09-19T09:43:40;99038.45;;;18.24;71.58
64460;BME280;50828;53.756;21.140;2023-09-19T09:49:03;99049.29;;;18.21;71.73
64460;BME280;50828;53.756;21.140;2023-09-19T09:54:28;99047.62;;;18.19;72.14
64460;BME280;50828;53.756;21.140;2023-09-19T09:59:53;99053.27;;;18.16;72.64
64460;BME280;50828;53.756;21.140;2023-09-19T10:05:03;99054.46;;;18.14;72.80
64460;BME280;50828;53.756;21.140;2023-09-19T10:10:34;99058.20;;;18.14;72.99
64460;BME280;50828;53.756;21.140;2023-09-19T10:16:07;99063.12;;;18.17;73.46
64460;BME280;50828;53.756;21.140;2023-09-19T10:21:17;99067.41;;;18.21;73.76
64460;BME280;50828;53.756;21.140;2023-09-19T10:26:29;99068.72;;;18.26;74.04
64460;BME280;50828;53.756;21.140;2023-09-19T10:31:40;99074.79;;;18.32;74.17
64460;BME280;50828;53.756;21.140;2023-09-19T10:36:54;99084.61;;;18.36;74.39
64460;BME280;50828;53.756;21.140;2023-09-19T10:42:04;99095.80;;;18.39;74.65
64460;BME280;50828;53.756;21.140;2023-09-19T10:47:14;99099.23;;;18.40;74.64
64460;BME280;50828;53.756;21.140;2023-09-19T10:52:26;99098.58;;;18.40;74.95
64460;BME280;50828;53.756;21.140;2023-09-19T10:57:34;99086.30;;;18.41;75.08
64460;BME280;50828;53.756;21.140;2023-09-19T11:02:43;99087.51;;;18.44;75.28
64460;BME280;50828;53.756;21.140;2023-09-19T11:08:04;99084.37;;;18.49;75.37
64460;BME280;50828;53.756;21.140;2023-09-19T11:13:26;99074.37;;;18.59;75.68
64460;BME280;50828;53.756;21.140;2023-09-19T11:18:57;99074.97;;;18.68;75.64
64460;BME280;50828;53.756;21.140;2023-09-19T11:24:31;99073.94;;;18.76;75.60
64460;BME280;50828;53.756;21.140;2023-09-19T11:29:42;99074.29;;;18.82;75.71
64460;BME280;50828;53.756;21.140;2023-09-19T11:35:09;99080.28;;;18.89;75.53
64460;BME280;50828;53.756;21.140;2023-09-19T11:40:18;99086.34;;;18.95;75.52
64460;BME280;50828;53.756;21.140;2023-09-19T11:51:21;99103.14;;;19.08;75.54
64460;BME280;50828;53.756;21.140;2023-09-19T11:56:29;99107.16;;;19.15;75.50
64460;BME280;50828;53.756;21.140;2023-09-19T12:01:43;99109.05;;;19.18;75.40
64460;BME280;50828;53.756;21.140;2023-09-19T12:07:06;99107.32;;;19.25;75.72
64460;BME280;50828;53.756;21.140;2023-09-19T12:12:24;99107.48;;;19.35;75.66
64460;BME280;50828;53.756;21.140;2023-09-19T12:17:38;99099.79;;;19.43;75.74
64460;BME280;50828;53.756;21.140;2023-09-19T12:22:48;99096.73;;;19.47;75.51
64460;BME280;50828;53.756;21.140;2023-09-19T12:27:56;99100.41;;;19.53;75.29
64460;BME280;50828;53.756;21.140;2023-09-19T12:33:18;99102.98;;;19.58;75.21
64460;BME280;50828;53.756;21.140;2023-09-19T12:38:28;99111.28;;;19.63;75.02
64460;BME280;50828;53.756;21.140;2023-09-19T12:43:41;99113.00;;;19.66;74.81
64460;BME280;50828;53.756;21.140;2023-09-19T12:54:14;99124.30;;;19.77;74.24
64460;BME280;50828;53.756;21.140;2023-09-19T12:59:31;99135.53;;;19.77;73.84
64460;BME280;50828;53.756;21.140;2023-09-19T13:04:39;99136.63;;;19.81;73.75
64460;BME280;50828;53.756;21.140;2023-09-19T13:10:05;99142.38;;;19.82;73.46
64460;BME280;50828;53.756;21.140;2023-09-19T13:15:16;99138.11;;;19.76;72.99
64460;BME280;50828;53.756;21.140;2023-09-19T13:20:26;99147.35;;;19.77;72.89
64460;BME280;50828;53.756;21.140;2023-09-19T13:25:39;99160.27;;;19.76;72.46
64460;BME280;50828;53.756;21.140;2023-09-19T13:30:47;99156.21;;;19.78;72.07
64460;BME280;50828;53.756;21.140;2023-09-19T13:35:55;99145.81;;;19.84;72.01
64460;BME280;50828;53.756;21.140;2023-09-19T13:41:02;99140.11;;;19.91;71.88
64460;BME280;50828;53.756;21.140;2023-09-19T13:46:10;99144.88;;;19.99;71.62
64460;BME280;50828;53.756;21.140;2023-09-19T13:51:22;99139.96;;;20.06;71.61
64460;BME280;50828;53.756;21.140;2023-09-19T13:56:31;99133.00;;;20.13;71.37
64460;BME280;50828;53.756;21.140;2023-09-19T14:01:39;99135.76;;;20.16;71.04
64460;BME280;50828;53.756;21.140;2023-09-19T14:06:47;99131.02;;;20.19;70.95
64460;BME280;50828;53.756;21.140;2023-09-19T14:11:55;99139.64;;;20.32;70.84
64460;BME280;50828;53.756;21.140;2023-09-19T14:17:03;99138.77;;;20.35;70.47
64460;BME280;50828;53.756;21.140;2023-09-19T14:22:12;99138.39;;;20.35;70.16
64460;BME280;50828;53.756;21.140;2023-09-19T14:27:19;99146.33;;;20.36;69.76
64460;BME280;50828;53.756;21.140;2023-09-19T14:32:27;99138.83;;;20.36;69.58
64460;BME280;50828;53.756;21.140;2023-09-19T14:37:34;99140.27;;;20.39;69.37
64460;BME280;50828;53.756;21.140;2023-09-19T14:42:44;99145.60;;;20.39;69.25
64460;BME280;50828;53.756;21.140;2023-09-19T14:47:57;99148.55;;;20.40;69.01
64460;BME280;50828;53.756;21.140;2023-09-19T14:53:05;99147.09;;;20.40;68.99
64460;BME280;50828;53.756;21.140;2023-09-19T14:58:16;99151.41;;;20.42;69.12
64460;BME280;50828;53.756;21.140;2023-09-19T15:03:24;99158.18;;;20.42;69.17
64460;BME280;50828;53.756;21.140;2023-09-19T15:08:33;99170.94;;;20.43;69.19
64460;BME280;50828;53.756;21.140;2023-09-19T15:13:41;99170.16;;;20.45;69.08
64460;BME280;50828;53.756;21.140;2023-09-19T15:18:49;99174.73;;;20.48;68.94
64460;BME280;50828;53.756;21.140;2023-09-19T15:23:58;99172.86;;;20.50;68.78
64460;BME280;50828;53.756;21.140;2023-09-19T15:29:06;99173.67;;;20.53;68.83
64460;BME280;50828;53.756;21.140;2023-09-19T15:34:13;99175.66;;;20.57;68.55
64460;BME280;50828;53.756;21.140;2023-09-19T15:39:21;99175.90;;;20.62;68.38
64460;BME280;50828;53.756;21.140;2023-09-19T15:44:29;99181.48;;;20.64;68.08
64460;BME280;50828;53.756;21.140;2023-09-19T15:49:38;99189.92;;;20.65;67.67
64460;BME280;50828;53.756;21.140;2023-09-19T15:54:46;99191.13;;;20.67;67.47
64460;BME280;50828;53.756;21.140;2023-09-19T15:59:54;99197.89;;;20.69;67.33
64460;BME280;50828;53.756;21.140;2023-09-19T16:05:04;99203.88;;;20.70;67.22
64460;BME280;50828;53.756;21.140;2023-09-19T16:10:13;99211.59;;;20.68;67.23
64460;BME280;50828;53.756;21.140;2023-09-19T16:15:21;99212.44;;;20.62;67.22
64460;BME280;50828;53.756;21.140;2023-09-19T16:20:28;99219.14;;;20.53;67.24
64460;BME280;50828;53.756;21.140;2023-09-19T16:25:39;99228.56;;;20.42;67.46
64460;BME280;50828;53.756;21.140;2023-09-19T16:30:47;99244.08;;;20.31;67.66
64460;BME280;50828;53.756;21.140;2023-09-19T16:35:55;99245.63;;;20.21;67.70
64460;BME280;50828;53.756;21.140;2023-09-19T16:41:03;99250.02;;;20.10;67.75
64460;BME280;50828;53.756;21.140;2023-09-19T16:46:12;99248.72;;;20.01;67.94
64460;BME280;50828;53.756;21.140;2023-09-19T16:51:23;99254.35;;;19.88;68.02
64460;BME280;50828;53.756;21.140;2023-09-19T16:56:30;99263.95;;;19.77;68.06
64460;BME280;50828;53.756;21.140;2023-09-19T17:01:42;99266.59;;;19.63;68.16
64460;BME280;50828;53.756;21.140;2023-09-19T17:06:50;99264.52;;;19.51;68.35
64460;BME280;50828;53.756;21.140;2023-09-19T17:11:59;99269.08;;;19.40;68.65
64460;BME280;50828;53.756;21.140;2023-09-19T17:17:08;99279.96;;;19.30;68.92
64460;BME280;50828;53.756;21.140;2023-09-19T17:22:17;99281.72;;;19.20;69.13
64460;BME280;50828;53.756;21.140;2023-09-19T17:27:25;99283.70;;;19.12;69.18
64460;BME280;50828;53.756;21.140;2023-09-19T17:32:34;99291.46;;;19.05;69.47
64460;BME280;50828;53.756;21.140;2023-09-19T17:37:42;99287.07;;;18.99;69.74
64460;BME280;50828;53.756;21.140;2023-09-19T17:42:49;99291.77;;;18.94;69.77
64460;BME280;50828;53.756;21.140;2023-09-19T17:47:57;99297.48;;;18.87;69.57
64460;BME280;50828;53.756;21.140;2023-09-19T17:53:06;99299.65;;;18.81;69.14
64460;BME280;50828;53.756;21.140;2023-09-19T17:58:15;99309.80;;;18.72;69.24
64460;BME280;50828;53.756;21.140;2023-09-19T18:03:22;99317.67;;;18.64;69.05
64460;BME280;50828;53.756;21.140;2023-09-19T18:08:31;99322.02;;;18.55;69.15
64460;BME280;50828;53.756;21.140;2023-09-19T18:13:39;99331.80;;;18.47;68.87
64460;BME280;50828;53.756;21.140;2023-09-19T18:18:48;99331.90;;;18.37;68.91
64460;BME280;50828;53.756;21.140;2023-09-19T18:23:59;99340.65;;;18.29;68.71
64460;BME280;50828;53.756;21.140;2023-09-19T18:29:10;99346.29;;;18.19;68.72
64460;BME280;50828;53.756;21.140;2023-09-19T18:34:17;99351.67;;;18.10;68.63
64460;BME280;50828;53.756;21.140;2023-09-19T18:39:26;99356.20;;;18.01;68.61
64460;BME280;50828;53.756;21.140;2023-09-19T18:44:36;99357.11;;;17.91;68.41
64460;BME280;50828;53.756;21.140;2023-09-19T18:49:43;99356.39;;;17.80;68.31
64460;BME280;50828;53.756;21.140;2023-09-19T18:54:51;99358.98;;;17.70;68.19
64460;BME280;50828;53.756;21.140;2023-09-19T18:59:59;99363.05;;;17.62;68.07
64460;BME280;50828;53.756;21.140;2023-09-19T19:05:08;99365.13;;;17.52;67.94
64460;BME280;50828;53.756;21.140;2023-09-19T19:10:17;99366.59;;;17.40;67.87
64460;BME280;50828;53.756;21.140;2023-09-19T19:15:25;99366.13;;;17.30;67.76
64460;BME280;50828;53.756;21.140;2023-09-19T19:20:33;99364.89;;;17.19;67.66
64460;BME280;50828;53.756;21.140;2023-09-19T19:25:47;99372.96;;;17.09;67.84
64460;BME280;50828;53.756;21.140;2023-09-19T19:30:56;99377.98;;;17.00;67.86
64460;BME280;50828;53.756;21.140;2023-09-19T19:36:08;99377.34;;;16.90;67.93
64460;BME280;50828;53.756;21.140;2023-09-19T19:41:20;99378.84;;;16.81;67.92
64460;BME280;50828;53.756;21.140;2023-09-19T19:46:28;99382.14;;;16.73;67.81
64460;BME280;50828;53.756;21.140;2023-09-19T19:51:36;99381.33;;;16.65;67.82
64460;BME280;50828;53.756;21.140;2023-09-19T19:56:45;99383.03;;;16.57;67.98
64460;BME280;50828;53.756;21.140;2023-09-19T20:01:53;99391.23;;;16.49;67.97
64460;BME280;50828;53.756;21.140;2023-09-19T20:07:02;99395.30;;;16.42;68.17
64460;BME280;50828;53.756;21.140;2023-09-19T20:12:11;99398.40;;;16.37;68.22
64460;BME280;50828;53.756;21.140;2023-09-19T20:17:18;99402.55;;;16.31;68.39
64460;BME280;50828;53.756;21.140;2023-09-19T20:22:31;99404.13;;;16.24;68.23
64460;BME280;50828;53.756;21.140;2023-09-19T20:27:42;99404.95;;;16.18;68.42
64460;BME280;50828;53.756;21.140;2023-09-19T20:32:51;99406.73;;;16.11;68.20
64460;BME280;50828;53.756;21.140;2023-09-19T20:38:01;99409.23;;;16.04;68.22
64460;BME280;50828;53.756;21.140;2023-09-19T20:43:09;99407.52;;;15.96;68.38
64460;BME280;50828;53.756;21.140;2023-09-19T20:48:16;99407.58;;;15.87;68.21
64460;BME280;50828;53.756;21.140;2023-09-19T20:53:24;99410.55;;;15.81;68.24
64460;BME280;50828;53.756;21.140;2023-09-19T20:58:32;99412.39;;;15.72;68.07
64460;BME280;50828;53.756;21.140;2023-09-19T21:03:41;99411.39;;;15.64;68.04
64460;BME280;50828;53.756;21.140;2023-09-19T21:08:49;99412.10;;;15.54;68.04
64460;BME280;50828;53.756;21.140;2023-09-19T21:13:56;99416.92;;;15.46;67.97
64460;BME280;50828;53.756;21.140;2023-09-19T21:19:04;99412.39;;;15.37;67.91
64460;BME280;50828;53.756;21.140;2023-09-19T21:24:13;99418.45;;;15.30;68.04
64460;BME280;50828;53.756;21.140;2023-09-19T21:29:23;99417.30;;;15.20;68.08
64460;BME280;50828;53.756;21.140;2023-09-19T21:34:31;99420.69;;;15.13;68.06
64460;BME280;50828;53.756;21.140;2023-09-19T21:39:39;99418.02;;;15.05;68.07
64460;BME280;50828;53.756;21.140;2023-09-19T21:44:46;99418.52;;;14.98;68.17
64460;BME280;50828;53.756;21.140;2023-09-19T21:49:54;99419.66;;;14.92;68.06
64460;BME280;50828;53.756;21.140;2023-09-19T21:55:02;99422.00;;;14.83;67.95
64460;BME280;50828;53.756;21.140;2023-09-19T22:00:11;99422.19;;;14.75;68.03
64460;BME280;50828;53.756;21.140;2023-09-19T22:05:30;99416.80;;;14.66;68.10
64460;BME280;50828;53.756;21.140;2023-09-19T22:10:44;99416.58;;;14.59;68.17
64460;BME280;50828;53.756;21.140;2023-09-19T22:15:57;99419.38;;;14.51;68.27
64460;BME280;50828;53.756;21.140;2023-09-19T22:21:05;99422.55;;;14.45;68.32
64460;BME280;50828;53.756;21.140;2023-09-19T22:26:18;99429.09;;;14.41;68.40
64460;BME280;50828;53.756;21.140;2023-09-19T22:31:26;99429.06;;;14.36;68.33
64460;BME280;50828;53.756;21.140;2023-09-19T22:36:42;99431.01;;;14.31;68.49
64460;BME280;50828;53.756;21.140;2023-09-19T22:41:50;99436.48;;;14.25;68.52
64460;BME280;50828;53.756;21.140;2023-09-19T22:46:59;99442.38;;;14.22;68.83
64460;BME280;50828;53.756;21.140;2023-09-19T22:52:08;99439.70;;;14.20;68.79
64460;BME280;50828;53.756;21.140;2023-09-19T22:57:16;99443.98;;;14.16;68.82
64460;BME280;50828;53.756;21.140;2023-09-19T23:02:23;99444.55;;;14.13;68.77
64460;BME280;50828;53.756;21.140;2023-09-19T23:07:35;99445.65;;;14.10;68.90
64460;BME280;50828;53.756;21.140;2023-09-19T23:12:42;99448.92;;;14.06;68.85
64460;BME280;50828;53.756;21.140;2023-09-19T23:17:50;99448.03;;;14.01;68.39
64460;BME280;50828;53.756;21.140;2023-09-19T23:22:58;99444.55;;;13.94;68.48
64460;BME280;50828;53.756;21.140;2023-09-19T23:28:07;99439.94;;;13.86;68.14
64460;BME280;50828;53.756;21.140;2023-09-19T23:33:16;99442.15;;;13.79;68.20
64460;BME280;50828;53.756;21.140;2023-09-19T23:38:24;99443.91;;;13.74;68.63
64460;BME280;50828;53.756;21.140;2023-09-19T23:43:31;99443.63;;;13.67;68.53
64460;BME280;50828;53.756;21.140;2023-09-19T23:48:42;99438.66;;;13.62;68.64
64460;BME280;50828;53.756;21.140;2023-09-19T23:53:49;99440.05;;;13.56;68.75
64460;BME280;50828;53.756;21.140;2023-09-19T23:58:57;99440.95;;;13.53;68.94
